sensor_id;sensor_type;location;lat;lon;timestamp;P1;durP1;ratioP1;P2;durP2;ratioP2
1090;SDS011;534;48.704;9.122;2023-03-11T04:02:05;2.67;;;1.00;;
1090;SDS011;534;48.704;9.122;2023-03-11T04:04:32;3.77;;;1.67;;
1090;SDS011;534;48.704;9.122;2023-03-11T04:06:59;2.10;;;0.97;;
1090;SDS011;534;48.704;9.122;2023-03-11T04:09:25;2.10;;;0.90;;
1090;SDS011;534;48.704;9.122;2023-03-11T04:11:52;2.43;;;0.93;;
1090;SDS011;534;48.704;9.122;2023-03-11T04:16:46;2.10;;;0.97;;
1090;SDS011;534;48.704;9.122;2023-03-11T04:19:14;2.30;;;1.10;;
1090;SDS011;534;48.704;9.122;2023-03-11T04:21:41;2.90;;;1.10;;
1090;SDS011;534;48.704;9.122;2023-03-11T04:24:08;2.40;;;1.07;;
1090;SDS011;534;48.704;9.122;2023-03-11T04:26:35;2.27;;;0.97;;
1090;SDS011;534;48.704;9.122;2023-03-11T04:29:02;2.73;;;1.10;;
1090;SDS011;534;48.704;9.122;2023-03-11T04:31:28;2.57;;;1.00;;
1090;SDS011;534;48.704;9.122;2023-03-11T04:33:55;2.20;;;1.00;;
1090;SDS011;534;48.704;9.122;2023-03-11T04:36:23;2.33;;;1.03;;
1090;SDS011;534;48.704;9.122;2023-03-11T04:38:50;2.90;;;1.10;;
1090;SDS011;534;48.704;9.122;2023-03-11T04:41:17;3.57;;;1.13;;
1090;SDS011;534;48.704;9.122;2023-03-11T04:43:44;2.50;;;1.10;;
1090;SDS011;534;48.704;9.122;2023-03-11T04:46:10;2.47;;;1.10;;
1090;SDS011;534;48.704;9.122;2023-03-11T04:48:37;2.53;;;1.10;;
1090;SDS011;534;48.704;9.122;2023-03-11T04:51:04;3.13;;;1.40;;
1090;SDS011;534;48.704;9.122;2023-03-11T04:53:32;3.30;;;1.07;;
1090;SDS011;534;48.704;9.122;2023-03-11T04:55:59;3.37;;;1.20;;
1090;SDS011;534;48.704;9.122;2023-03-11T04:58:26;3.27;;;1.50;;
1090;SDS011;534;48.704;9.122;2023-03-11T05:00:53;2.63;;;1.10;;
1090;SDS011;534;48.704;9.122;2023-03-11T05:03:20;2.50;;;1.10;;
1090;SDS011;534;48.704;9.122;2023-03-11T05:05:47;2.20;;;1.00;;
1090;SDS011;534;48.704;9.122;2023-03-11T05:08:14;2.20;;;0.80;;
1090;SDS011;534;48.704;9.122;2023-03-11T05:10:42;3.13;;;1.60;;
1090;SDS011;534;48.704;9.122;2023-03-11T05:13:08;2.50;;;0.93;;
1090;SDS011;534;48.704;9.122;2023-03-11T05:15:35;3.00;;;1.20;;
1090;SDS011;534;48.704;9.122;2023-03-11T05:18:02;3.17;;;1.00;;
1090;SDS011;534;48.704;9.122;2023-03-11T05:20:28;2.40;;;0.90;;
1090;SDS011;534;48.704;9.122;2023-03-11T05:22:56;2.83;;;1.00;;
1090;SDS011;534;48.704;9.122;2023-03-11T05:25:23;2.83;;;1.00;;
1090;SDS011;534;48.704;9.122;2023-03-11T05:27:52;2.03;;;1.00;;
1090;SDS011;534;48.704;9.122;2023-03-11T05:30:18;5.80;;;1.20;;
1090;SDS011;534;48.704;9.122;2023-03-11T05:32:45;2.30;;;0.90;;
1090;SDS011;534;48.704;9.122;2023-03-11T05:35:12;2.77;;;1.10;;
1090;SDS011;534;48.704;9.122;2023-03-11T05:37:39;3.37;;;1.33;;
1090;SDS011;534;48.704;9.122;2023-03-11T05:40:06;3.27;;;1.00;;
1090;SDS011;534;48.704;9.122;2023-03-11T05:42:35;2.30;;;1.20;;
1090;SDS011;534;48.704;9.122;2023-03-11T05:45:03;2.40;;;1.37;;
1090;SDS011;534;48.704;9.122;2023-03-11T05:47:30;2.70;;;1.07;;
1090;SDS011;534;48.704;9.122;2023-03-11T05:49:57;3.37;;;1.33;;
1090;SDS011;534;48.704;9.122;2023-03-11T05:52:23;4.10;;;1.17;;
1090;SDS011;534;48.704;9.122;2023-03-11T05:54:50;2.13;;;1.30;;
1090;SDS011;534;48.704;9.122;2023-03-11T05:57:17;2.87;;;1.43;;
1090;SDS011;534;48.704;9.122;2023-03-11T05:59:45;3.47;;;1.20;;
1090;SDS011;534;48.704;9.122;2023-03-11T06:02:13;3.60;;;1.40;;
1090;SDS011;534;48.704;9.122;2023-03-11T06:04:39;4.03;;;1.50;;
1090;SDS011;534;48.704;9.122;2023-03-11T06:07:06;2.00;;;0.90;;
1090;SDS011;534;48.704;9.122;2023-03-11T06:09:33;3.50;;;1.20;;
1090;SDS011;534;48.704;9.122;2023-03-11T06:12:01;2.73;;;1.30;;
1090;SDS011;534;48.704;9.122;2023-03-11T06:14:28;3.03;;;1.10;;
1090;SDS011;534;48.704;9.122;2023-03-11T06:16:55;3.17;;;0.97;;
1090;SDS011;534;48.704;9.122;2023-03-11T06:19:23;2.27;;;1.00;;
1090;SDS011;534;48.704;9.122;2023-03-11T06:21:50;2.70;;;1.60;;
1090;SDS011;534;48.704;9.122;2023-03-11T06:24:17;2.40;;;1.00;;
1090;SDS011;534;48.704;9.122;2023-03-11T06:26:44;2.63;;;1.50;;
1090;SDS011;534;48.704;9.122;2023-03-11T06:29:11;4.43;;;1.20;;
1090;SDS011;534;48.704;9.122;2023-03-11T06:31:41;3.23;;;1.40;;
1090;SDS011;534;48.704;9.122;2023-03-11T06:34:08;2.93;;;1.20;;
1090;SDS011;534;48.704;9.122;2023-03-11T06:36:37;2.10;;;0.90;;
1090;SDS011;534;48.704;9.122;2023-03-11T06:39:03;3.60;;;1.20;;
1090;SDS011;534;48.704;9.122;2023-03-11T06:41:31;2.73;;;1.80;;
1090;SDS011;534;48.704;9.122;2023-03-11T06:43:58;2.93;;;1.13;;
1090;SDS011;534;48.704;9.122;2023-03-11T06:46:25;3.67;;;1.53;;
1090;SDS011;534;48.704;9.122;2023-03-11T06:48:52;2.40;;;1.20;;
1090;SDS011;534;48.704;9.122;2023-03-11T06:51:19;3.40;;;1.10;;
1090;SDS011;534;48.704;9.122;2023-03-11T06:53:48;2.60;;;1.00;;
1090;SDS011;534;48.704;9.122;2023-03-11T06:56:16;2.83;;;1.10;;
1090;SDS011;534;48.704;9.122;2023-03-11T06:58:43;2.60;;;1.13;;
1090;SDS011;534;48.704;9.122;2023-03-11T07:01:11;2.97;;;1.13;;
1090;SDS011;534;48.704;9.122;2023-03-11T07:03:39;2.10;;;0.90;;
1090;SDS011;534;48.704;9.122;2023-03-11T07:06:06;2.10;;;0.90;;
1090;SDS011;534;48.704;9.122;2023-03-11T07:08:37;3.37;;;1.40;;
1090;SDS011;534;48.704;9.122;2023-03-11T07:11:06;2.93;;;1.20;;
1090;SDS011;534;48.704;9.122;2023-03-11T07:13:34;4.13;;;1.50;;
1090;SDS011;534;48.704;9.122;2023-03-11T07:16:02;4.03;;;1.50;;
1090;SDS011;534;48.704;9.122;2023-03-11T07:18:31;2.40;;;1.20;;
1090;SDS011;534;48.704;9.122;2023-03-11T07:20:58;2.90;;;1.10;;
1090;SDS011;534;48.704;9.122;2023-03-11T07:23:25;2.20;;;1.00;;
1090;SDS011;534;48.704;9.122;2023-03-11T07:25:52;2.60;;;1.17;;
1090;SDS011;534;48.704;9.122;2023-03-11T07:28:21;3.90;;;1.33;;
1090;SDS011;534;48.704;9.122;2023-03-11T07:30:48;2.43;;;1.00;;
1090;SDS011;534;48.704;9.122;2023-03-11T07:33:15;2.73;;;1.40;;
1090;SDS011;534;48.704;9.122;2023-03-11T07:35:42;3.20;;;1.40;;
1090;SDS011;534;48.704;9.122;2023-03-11T07:38:09;2.33;;;1.10;;
1090;SDS011;534;48.704;9.122;2023-03-11T07:40:36;2.73;;;1.13;;
1090;SDS011;534;48.704;9.122;2023-03-11T07:43:03;3.00;;;1.30;;
1090;SDS011;534;48.704;9.122;2023-03-11T07:45:31;2.43;;;0.90;;
1090;SDS011;534;48.704;9.122;2023-03-11T07:47:58;3.43;;;1.37;;
1090;SDS011;534;48.704;9.122;2023-03-11T07:50:24;3.57;;;1.43;;
1090;SDS011;534;48.704;9.122;2023-03-11T07:52:51;5.50;;;1.40;;
1090;SDS011;534;48.704;9.122;2023-03-11T07:55:18;3.60;;;1.40;;
1090;SDS011;534;48.704;9.122;2023-03-11T07:57:45;2.80;;;1.40;;
1090;SDS011;534;48.704;9.122;2023-03-11T08:00:13;4.63;;;1.00;;
1090;SDS011;534;48.704;9.122;2023-03-11T08:02:42;2.40;;;1.20;;
1090;SDS011;534;48.704;9.122;2023-03-11T08:05:09;2.30;;;1.23;;
1090;SDS011;534;48.704;9.122;2023-03-11T08:07:36;3.43;;;1.60;;
1090;SDS011;534;48.704;9.122;2023-03-11T08:10:05;3.23;;;1.10;;
1090;SDS011;534;48.704;9.122;2023-03-11T08:12:32;2.43;;;1.17;;
1090;SDS011;534;48.704;9.122;2023-03-11T08:15:00;2.43;;;0.97;;
1090;SDS011;534;48.704;9.122;2023-03-11T08:17:26;2.67;;;1.03;;
1090;SDS011;534;48.704;9.122;2023-03-11T08:19:54;2.83;;;1.10;;
1090;SDS011;534;48.704;9.122;2023-03-11T08:22:21;3.00;;;1.30;;
1090;SDS011;534;48.704;9.122;2023-03-11T08:24:49;3.00;;;1.40;;
1090;SDS011;534;48.704;9.122;2023-03-11T08:27:16;2.30;;;1.20;;
1090;SDS011;534;48.704;9.122;2023-03-11T08:29:43;3.30;;;0.80;;
1090;SDS011;534;48.704;9.122;2023-03-11T08:32:10;3.07;;;0.90;;
1090;SDS011;534;48.704;9.122;2023-03-11T08:34:36;2.03;;;0.80;;
1090;SDS011;534;48.704;9.122;2023-03-11T08:37:05;2.67;;;1.20;;
1090;SDS011;534;48.704;9.122;2023-03-11T08:39:32;2.07;;;0.90;;
1090;SDS011;534;48.704;9.122;2023-03-11T08:41:58;2.60;;;0.90;;
1090;SDS011;534;48.704;9.122;2023-03-11T08:44:25;2.67;;;0.90;;
1090;SDS011;534;48.704;9.122;2023-03-11T08:46:52;3.70;;;1.00;;
1090;SDS011;534;48.704;9.122;2023-03-11T08:49:18;3.23;;;1.20;;
1090;SDS011;534;48.704;9.122;2023-03-11T08:51:45;2.40;;;1.00;;
1090;SDS011;534;48.704;9.122;2023-03-11T08:54:13;2.00;;;0.77;;
1090;SDS011;534;48.704;9.122;2023-03-11T08:56:40;2.00;;;0.90;;
1090;SDS011;534;48.704;9.122;2023-03-11T08:59:07;2.10;;;0.80;;
1090;SDS011;534;48.704;9.122;2023-03-11T09:01:33;2.00;;;0.80;;
1090;SDS011;534;48.704;9.122;2023-03-11T09:04:00;2.40;;;1.00;;
1090;SDS011;534;48.704;9.122;2023-03-11T09:06:27;3.80;;;0.93;;
1090;SDS011;534;48.704;9.122;2023-03-11T09:08:54;2.10;;;0.77;;
1090;SDS011;534;48.704;9.122;2023-03-11T09:11:23;2.60;;;1.47;;
1090;SDS011;534;48.704;9.122;2023-03-11T09:13:50;3.27;;;0.97;;
1090;SDS011;534;48.704;9.122;2023-03-11T09:16:17;2.90;;;0.90;;
1090;SDS011;534;48.704;9.122;2023-03-11T09:18:45;3.43;;;1.00;;
1090;SDS011;534;48.704;9.122;2023-03-11T09:21:12;2.40;;;0.67;;
1090;SDS011;534;48.704;9.122;2023-03-11T09:23:39;3.10;;;1.07;;
1090;SDS011;534;48.704;9.122;2023-03-11T09:26:06;3.27;;;1.10;;
1090;SDS011;534;48.704;9.122;2023-03-11T09:28:34;3.70;;;1.10;;
1090;SDS011;534;48.704;9.122;2023-03-11T09:31:01;3.50;;;1.00;;
1090;SDS011;534;48.704;9.122;2023-03-11T09:33:27;2.50;;;1.00;;
1090;SDS011;534;48.704;9.122;2023-03-11T09:35:54;2.03;;;0.90;;
1090;SDS011;534;48.704;9.122;2023-03-11T09:38:22;2.30;;;0.80;;
1090;SDS011;534;48.704;9.122;2023-03-11T09:40:51;2.83;;;1.00;;
1090;SDS011;534;48.704;9.122;2023-03-11T09:43:31;2.03;;;1.00;;
1090;SDS011;534;48.704;9.122;2023-03-11T09:46:16;2.47;;;1.10;;
1090;SDS011;534;48.704;9.122;2023-03-11T09:48:59;2.10;;;0.80;;
1090;SDS011;534;48.704;9.122;2023-03-11T09:51:38;2.30;;;0.93;;
1090;SDS011;534;48.704;9.122;2023-03-11T09:54:08;1.87;;;0.80;;
1090;SDS011;534;48.704;9.122;2023-03-11T09:56:36;2.07;;;0.90;;
1090;SDS011;534;48.704;9.122;2023-03-11T09:59:05;2.27;;;0.87;;
1090;SDS011;534;48.704;9.122;2023-03-11T10:01:39;2.20;;;0.80;;
1090;SDS011;534;48.704;9.122;2023-03-11T10:04:09;2.43;;;0.97;;
1090;SDS011;534;48.704;9.122;2023-03-11T10:06:39;2.13;;;1.10;;
1090;SDS011;534;48.704;9.122;2023-03-11T10:09:13;2.73;;;1.00;;
1090;SDS011;534;48.704;9.122;2023-03-11T10:11:58;1.90;;;0.83;;
1090;SDS011;534;48.704;9.122;2023-03-11T10:14:36;2.30;;;0.80;;
1090;SDS011;534;48.704;9.122;2023-03-11T10:17:14;2.43;;;0.90;;
1090;SDS011;534;48.704;9.122;2023-03-11T10:19:48;2.10;;;0.80;;
1090;SDS011;534;48.704;9.122;2023-03-11T10:22:23;2.10;;;0.97;;
1090;SDS011;534;48.704;9.122;2023-03-11T10:24:56;2.40;;;1.07;;
1090;SDS011;534;48.704;9.122;2023-03-11T10:27:30;2.10;;;1.00;;
1090;SDS011;534;48.704;9.122;2023-03-11T10:30:05;2.80;;;0.90;;
1090;SDS011;534;48.704;9.122;2023-03-11T10:32:39;1.90;;;0.70;;
1090;SDS011;534;48.704;9.122;2023-03-11T10:35:14;2.13;;;0.70;;
1090;SDS011;534;48.704;9.122;2023-03-11T10:37:44;2.67;;;0.80;;
1090;SDS011;534;48.704;9.122;2023-03-11T10:40:17;2.03;;;0.90;;
1090;SDS011;534;48.704;9.122;2023-03-11T10:42:47;1.90;;;0.80;;
1090;SDS011;534;48.704;9.122;2023-03-11T10:45:17;2.17;;;0.97;;
1090;SDS011;534;48.704;9.122;2023-03-11T10:47:47;2.77;;;0.93;;
1090;SDS011;534;48.704;9.122;2023-03-11T10:50:14;2.73;;;1.20;;
1090;SDS011;534;48.704;9.122;2023-03-11T10:52:43;2.83;;;0.80;;
1090;SDS011;534;48.704;9.122;2023-03-11T10:55:26;2.40;;;1.00;;
1090;SDS011;534;48.704;9.122;2023-03-11T10:57:53;2.67;;;1.10;;
1090;SDS011;534;48.704;9.122;2023-03-11T11:00:30;2.00;;;0.77;;
1090;SDS011;534;48.704;9.122;2023-03-11T11:02:57;2.63;;;0.90;;
1090;SDS011;534;48.704;9.122;2023-03-11T11:05:27;2.10;;;0.73;;
1090;SDS011;534;48.704;9.122;2023-03-11T11:08:04;2.93;;;0.80;;
1090;SDS011;534;48.704;9.122;2023-03-11T11:10:33;2.00;;;1.00;;
1090;SDS011;534;48.704;9.122;2023-03-11T11:13:01;4.67;;;1.23;;
1090;SDS011;534;48.704;9.122;2023-03-11T11:15:49;1.87;;;0.80;;
1090;SDS011;534;48.704;9.122;2023-03-11T11:18:18;1.80;;;0.70;;
1090;SDS011;534;48.704;9.122;2023-03-11T11:20:51;2.10;;;1.03;;
1090;SDS011;534;48.704;9.122;2023-03-11T11:23:26;2.80;;;1.20;;
1090;SDS011;534;48.704;9.122;2023-03-11T11:25:57;2.10;;;0.70;;
1090;SDS011;534;48.704;9.122;2023-03-11T11:28:25;2.50;;;0.90;;
1090;SDS011;534;48.704;9.122;2023-03-11T11:30:54;3.30;;;1.00;;
1090;SDS011;534;48.704;9.122;2023-03-11T11:33:24;2.20;;;0.80;;
1090;SDS011;534;48.704;9.122;2023-03-11T11:35:53;2.87;;;1.00;;
1090;SDS011;534;48.704;9.122;2023-03-11T11:38:21;1.90;;;0.70;;
1090;SDS011;534;48.704;9.122;2023-03-11T11:40:50;2.53;;;1.17;;
1090;SDS011;534;48.704;9.122;2023-03-11T11:43:19;2.00;;;0.80;;
1090;SDS011;534;48.704;9.122;2023-03-11T11:45:54;2.00;;;0.90;;
1090;SDS011;534;48.704;9.122;2023-03-11T11:48:23;1.87;;;0.77;;
1090;SDS011;534;48.704;9.122;2023-03-11T11:50:55;2.50;;;0.90;;
1090;SDS011;534;48.704;9.122;2023-03-11T11:53:27;2.40;;;1.10;;
1090;SDS011;534;48.704;9.122;2023-03-11T11:56:00;2.00;;;0.90;;
1090;SDS011;534;48.704;9.122;2023-03-11T11:58:27;3.80;;;1.07;;
1090;SDS011;534;48.704;9.122;2023-03-11T12:01:00;2.30;;;1.17;;
1090;SDS011;534;48.704;9.122;2023-03-11T12:06:32;1.80;;;0.80;;
1090;SDS011;534;48.704;9.122;2023-03-11T12:09:09;2.20;;;0.83;;
1090;SDS011;534;48.704;9.122;2023-03-11T12:11:48;2.00;;;0.90;;
1090;SDS011;534;48.704;9.122;2023-03-11T12:14:22;2.67;;;0.87;;
1090;SDS011;534;48.704;9.122;2023-03-11T12:16:54;2.20;;;0.80;;
1090;SDS011;534;48.704;9.122;2023-03-11T12:19:28;2.30;;;1.00;;
1090;SDS011;534;48.704;9.122;2023-03-11T12:22:08;2.30;;;0.90;;
1090;SDS011;534;48.704;9.122;2023-03-11T12:25:00;2.27;;;1.00;;
1090;SDS011;534;48.704;9.122;2023-03-11T12:27:40;2.93;;;1.13;;
1090;SDS011;534;48.704;9.122;2023-03-11T12:30:15;3.40;;;1.10;;
1090;SDS011;534;48.704;9.122;2023-03-11T12:32:45;2.20;;;0.90;;
1090;SDS011;534;48.704;9.122;2023-03-11T12:35:18;2.83;;;1.30;;
1090;SDS011;534;48.704;9.122;2023-03-11T12:37:54;2.30;;;0.93;;
1090;SDS011;534;48.704;9.122;2023-03-11T12:46:23;2.03;;;0.90;;
1090;SDS011;534;48.704;9.122;2023-03-11T12:49:28;2.90;;;1.00;;
1090;SDS011;534;48.704;9.122;2023-03-11T12:51:59;2.17;;;0.80;;
1090;SDS011;534;48.704;9.122;2023-03-11T12:54:28;3.10;;;1.00;;
1090;SDS011;534;48.704;9.122;2023-03-11T12:56:56;2.80;;;0.90;;
1090;SDS011;534;48.704;9.122;2023-03-11T13:02:42;2.20;;;0.90;;
1090;SDS011;534;48.704;9.122;2023-03-11T13:05:37;2.77;;;0.90;;
1090;SDS011;534;48.704;9.122;2023-03-11T13:08:13;2.00;;;0.97;;
1090;SDS011;534;48.704;9.122;2023-03-11T13:10:41;2.40;;;1.00;;
1090;SDS011;534;48.704;9.122;2023-03-11T13:13:28;4.50;;;0.93;;
1090;SDS011;534;48.704;9.122;2023-03-11T13:22:00;2.10;;;0.90;;
1090;SDS011;534;48.704;9.122;2023-03-11T13:24:50;2.63;;;1.00;;
1090;SDS011;534;48.704;9.122;2023-03-11T13:27:21;2.07;;;0.80;;
1090;SDS011;534;48.704;9.122;2023-03-11T13:30:00;5.00;;;0.90;;
1090;SDS011;534;48.704;9.122;2023-03-11T13:32:47;3.90;;;0.80;;
1090;SDS011;534;48.704;9.122;2023-03-11T13:35:23;2.40;;;0.80;;
1090;SDS011;534;48.704;9.122;2023-03-11T13:38:12;1.93;;;0.90;;
1090;SDS011;534;48.704;9.122;2023-03-11T13:40:51;2.40;;;0.70;;
1090;SDS011;534;48.704;9.122;2023-03-11T13:43:20;2.00;;;0.90;;
1090;SDS011;534;48.704;9.122;2023-03-11T13:45:50;2.93;;;1.10;;
1090;SDS011;534;48.704;9.122;2023-03-11T13:48:19;2.10;;;1.00;;
1090;SDS011;534;48.704;9.122;2023-03-11T13:50:50;2.07;;;0.80;;
1090;SDS011;534;48.704;9.122;2023-03-11T13:53:24;2.40;;;1.37;;
1090;SDS011;534;48.704;9.122;2023-03-11T13:55:55;3.00;;;0.90;;
1090;SDS011;534;48.704;9.122;2023-03-11T13:58:23;2.10;;;1.00;;
1090;SDS011;534;48.704;9.122;2023-03-11T14:00:51;2.13;;;1.00;;
1090;SDS011;534;48.704;9.122;2023-03-11T14:03:19;1.90;;;0.80;;
1090;SDS011;534;48.704;9.122;2023-03-11T14:05:49;2.40;;;0.70;;
1090;SDS011;534;48.704;9.122;2023-03-11T14:08:24;2.83;;;1.30;;
1090;SDS011;534;48.704;9.122;2023-03-11T14:10:53;2.40;;;1.00;;
1090;SDS011;534;48.704;9.122;2023-03-11T14:13:22;2.47;;;0.93;;
1090;SDS011;534;48.704;9.122;2023-03-11T14:15:54;2.50;;;1.10;;
1090;SDS011;534;48.704;9.122;2023-03-11T14:18:32;2.00;;;1.00;;
1090;SDS011;534;48.704;9.122;2023-03-11T14:21:03;1.90;;;0.80;;
1090;SDS011;534;48.704;9.122;2023-03-11T14:23:34;2.97;;;1.10;;
1090;SDS011;534;48.704;9.122;2023-03-11T14:26:03;2.30;;;0.83;;
1090;SDS011;534;48.704;9.122;2023-03-11T14:28:32;2.60;;;1.00;;
1090;SDS011;534;48.704;9.122;2023-03-11T14:31:02;1.80;;;0.80;;
1090;SDS011;534;48.704;9.122;2023-03-11T14:33:30;1.80;;;0.70;;
1090;SDS011;534;48.704;9.122;2023-03-11T14:35:57;1.90;;;0.90;;
1090;SDS011;534;48.704;9.122;2023-03-11T14:38:27;2.03;;;0.90;;
1090;SDS011;534;48.704;9.122;2023-03-11T14:40:57;2.83;;;1.40;;
1090;SDS011;534;48.704;9.122;2023-03-11T14:43:25;2.20;;;0.80;;
1090;SDS011;534;48.704;9.122;2023-03-11T14:45:54;2.40;;;0.87;;
1090;SDS011;534;48.704;9.122;2023-03-11T14:48:23;2.00;;;0.90;;
1090;SDS011;534;48.704;9.122;2023-03-11T14:50:54;2.60;;;1.20;;
1090;SDS011;534;48.704;9.122;2023-03-11T14:53:23;2.30;;;1.13;;
1090;SDS011;534;48.704;9.122;2023-03-11T14:55:54;3.40;;;1.40;;
1090;SDS011;534;48.704;9.122;2023-03-11T14:58:25;2.20;;;1.00;;
1090;SDS011;534;48.704;9.122;2023-03-11T15:00:59;3.13;;;1.30;;
1090;SDS011;534;48.704;9.122;2023-03-11T15:03:31;2.63;;;1.27;;
1090;SDS011;534;48.704;9.122;2023-03-11T15:06:00;2.57;;;1.00;;
1090;SDS011;534;48.704;9.122;2023-03-11T15:08:30;2.10;;;0.83;;
1090;SDS011;534;48.704;9.122;2023-03-11T15:11:01;2.53;;;0.90;;
1090;SDS011;534;48.704;9.122;2023-03-11T15:13:44;3.90;;;0.90;;
1090;SDS011;534;48.704;9.122;2023-03-11T15:16:21;2.10;;;1.20;;
1090;SDS011;534;48.704;9.122;2023-03-11T15:18:59;2.40;;;1.40;;
1090;SDS011;534;48.704;9.122;2023-03-11T15:21:26;5.03;;;1.27;;
1090;SDS011;534;48.704;9.122;2023-03-11T15:23:55;3.10;;;1.10;;
1090;SDS011;534;48.704;9.122;2023-03-11T15:26:27;2.20;;;0.90;;
1090;SDS011;534;48.704;9.122;2023-03-11T15:28:57;2.00;;;0.87;;
1090;SDS011;534;48.704;9.122;2023-03-11T15:31:27;2.80;;;1.47;;
1090;SDS011;534;48.704;9.122;2023-03-11T15:34:09;2.40;;;1.40;;
1090;SDS011;534;48.704;9.122;2023-03-11T15:36:54;3.17;;;1.10;;
1090;SDS011;534;48.704;9.122;2023-03-11T15:39:44;2.20;;;1.13;;
1090;SDS011;534;48.704;9.122;2023-03-11T15:42:19;2.40;;;1.10;;
1090;SDS011;534;48.704;9.122;2023-03-11T15:44:51;4.13;;;1.27;;
1090;SDS011;534;48.704;9.122;2023-03-11T15:47:32;2.40;;;1.07;;
1090;SDS011;534;48.704;9.122;2023-03-11T15:50:01;2.90;;;1.07;;
1090;SDS011;534;48.704;9.122;2023-03-11T15:52:38;2.80;;;1.10;;
1090;SDS011;534;48.704;9.122;2023-03-11T15:55:05;2.70;;;1.20;;
1090;SDS011;534;48.704;9.122;2023-03-11T15:57:35;2.53;;;1.20;;
1090;SDS011;534;48.704;9.122;2023-03-11T16:00:05;3.43;;;1.40;;
1090;SDS011;534;48.704;9.122;2023-03-11T16:02:40;2.40;;;1.00;;
1090;SDS011;534;48.704;9.122;2023-03-11T16:05:11;3.60;;;1.60;;
1090;SDS011;534;48.704;9.122;2023-03-11T16:07:39;4.10;;;1.70;;
1090;SDS011;534;48.704;9.122;2023-03-11T16:10:06;3.07;;;1.80;;
1090;SDS011;534;48.704;9.122;2023-03-11T16:12:33;2.70;;;1.00;;
1090;SDS011;534;48.704;9.122;2023-03-11T16:15:00;3.50;;;1.80;;
1090;SDS011;534;48.704;9.122;2023-03-11T16:17:29;2.60;;;1.40;;
1090;SDS011;534;48.704;9.122;2023-03-11T16:19:56;3.93;;;1.80;;
1090;SDS011;534;48.704;9.122;2023-03-11T16:22:23;4.43;;;1.57;;
1090;SDS011;534;48.704;9.122;2023-03-11T16:24:58;2.73;;;1.10;;
1090;SDS011;534;48.704;9.122;2023-03-11T16:27:26;2.90;;;1.00;;
1090;SDS011;534;48.704;9.122;2023-03-11T16:29:53;2.20;;;1.10;;
1090;SDS011;534;48.704;9.122;2023-03-11T16:32:20;2.30;;;1.00;;
1090;SDS011;534;48.704;9.122;2023-03-11T16:34:48;2.33;;;0.97;;
1090;SDS011;534;48.704;9.122;2023-03-11T16:37:15;2.47;;;1.17;;
1090;SDS011;534;48.704;9.122;2023-03-11T16:39:44;2.40;;;1.40;;
1090;SDS011;534;48.704;9.122;2023-03-11T16:42:11;2.40;;;1.20;;
1090;SDS011;534;48.704;9.122;2023-03-11T16:44:38;3.97;;;1.40;;
1090;SDS011;534;48.704;9.122;2023-03-11T16:47:05;3.03;;;1.40;;
1090;SDS011;534;48.704;9.122;2023-03-11T16:49:32;2.20;;;0.90;;
1090;SDS011;534;48.704;9.122;2023-03-11T16:52:00;3.80;;;1.00;;
1090;SDS011;534;48.704;9.122;2023-03-11T16:54:26;3.87;;;1.53;;
1090;SDS011;534;48.704;9.122;2023-03-11T16:56:53;2.93;;;1.20;;
1090;SDS011;534;48.704;9.122;2023-03-11T16:59:20;2.67;;;1.30;;
1090;SDS011;534;48.704;9.122;2023-03-11T17:01:46;2.57;;;1.03;;
1090;SDS011;534;48.704;9.122;2023-03-11T17:04:13;5.73;;;3.50;;
1090;SDS011;534;48.704;9.122;2023-03-11T17:06:39;4.43;;;2.13;;
1090;SDS011;534;48.704;9.122;2023-03-11T17:09:07;3.50;;;2.03;;
1090;SDS011;534;48.704;9.122;2023-03-11T17:11:34;3.80;;;1.97;;
1090;SDS011;534;48.704;9.122;2023-03-11T17:14:01;3.17;;;1.60;;
1090;SDS011;534;48.704;9.122;2023-03-11T17:16:28;2.57;;;1.33;;
1090;SDS011;534;48.704;9.122;2023-03-11T17:18:54;3.80;;;1.20;;
1090;SDS011;534;48.704;9.122;2023-03-11T17:21:21;2.37;;;0.90;;
1090;SDS011;534;48.704;9.122;2023-03-11T17:23:47;2.10;;;1.07;;
1090;SDS011;534;48.704;9.122;2023-03-11T17:26:16;2.43;;;1.00;;
1090;SDS011;534;48.704;9.122;2023-03-11T17:28:43;2.57;;;1.20;;
1090;SDS011;534;48.704;9.122;2023-03-11T17:31:10;2.60;;;1.50;;
1090;SDS011;534;48.704;9.122;2023-03-11T17:33:37;2.37;;;1.17;;
1090;SDS011;534;48.704;9.122;2023-03-11T17:36:05;2.83;;;1.33;;
1090;SDS011;534;48.704;9.122;2023-03-11T17:38:33;3.83;;;1.50;;
1090;SDS011;534;48.704;9.122;2023-03-11T17:41:00;3.10;;;1.77;;
1090;SDS011;534;48.704;9.122;2023-03-11T17:43:33;2.83;;;1.50;;
1090;SDS011;534;48.704;9.122;2023-03-11T17:46:00;3.40;;;1.30;;
1090;SDS011;534;48.704;9.122;2023-03-11T17:48:27;3.00;;;1.50;;
1090;SDS011;534;48.704;9.122;2023-03-11T17:50:53;5.00;;;1.50;;
1090;SDS011;534;48.704;9.122;2023-03-11T17:53:20;4.27;;;2.37;;
1090;SDS011;534;48.704;9.122;2023-03-11T17:55:46;3.80;;;1.83;;
1090;SDS011;534;48.704;9.122;2023-03-11T17:58:13;2.93;;;1.80;;
1090;SDS011;534;48.704;9.122;2023-03-11T18:00:41;3.07;;;1.40;;
1090;SDS011;534;48.704;9.122;2023-03-11T18:03:08;5.17;;;1.83;;
1090;SDS011;534;48.704;9.122;2023-03-11T18:05:34;3.10;;;1.33;;
1090;SDS011;534;48.704;9.122;2023-03-11T18:08:02;3.57;;;1.60;;
1090;SDS011;534;48.704;9.122;2023-03-11T18:10:28;2.33;;;1.17;;
1090;SDS011;534;48.704;9.122;2023-03-11T18:12:55;3.63;;;2.03;;
1090;SDS011;534;48.704;9.122;2023-03-11T18:15:22;4.10;;;1.70;;
1090;SDS011;534;48.704;9.122;2023-03-11T18:17:50;3.20;;;1.97;;
1090;SDS011;534;48.704;9.122;2023-03-11T18:20:16;3.63;;;2.40;;
1090;SDS011;534;48.704;9.122;2023-03-11T18:22:43;3.23;;;2.17;;
1090;SDS011;534;48.704;9.122;2023-03-11T18:25:10;2.50;;;1.60;;
1090;SDS011;534;48.704;9.122;2023-03-11T18:27:37;2.93;;;1.60;;
1090;SDS011;534;48.704;9.122;2023-03-11T18:30:05;3.60;;;2.50;;
1090;SDS011;534;48.704;9.122;2023-03-11T18:32:35;3.07;;;2.00;;
1090;SDS011;534;48.704;9.122;2023-03-11T18:35:03;2.73;;;1.57;;
1090;SDS011;534;48.704;9.122;2023-03-11T18:37:30;5.67;;;2.83;;
1090;SDS011;534;48.704;9.122;2023-03-11T18:39:57;3.47;;;2.50;;
1090;SDS011;534;48.704;9.122;2023-03-11T18:42:24;5.23;;;3.03;;
1090;SDS011;534;48.704;9.122;2023-03-11T18:44:51;3.93;;;2.47;;
1090;SDS011;534;48.704;9.122;2023-03-11T18:47:17;6.17;;;2.80;;
1090;SDS011;534;48.704;9.122;2023-03-11T18:49:44;2.20;;;1.30;;
1090;SDS011;534;48.704;9.122;2023-03-11T18:52:12;4.00;;;2.03;;
1090;SDS011;534;48.704;9.122;2023-03-11T18:54:39;3.53;;;1.80;;
1090;SDS011;534;48.704;9.122;2023-03-11T18:57:06;3.33;;;1.70;;
1090;SDS011;534;48.704;9.122;2023-03-11T18:59:32;2.77;;;1.70;;
1090;SDS011;534;48.704;9.122;2023-03-11T19:01:59;3.00;;;1.63;;
1090;SDS011;534;48.704;9.122;2023-03-11T19:04:26;3.70;;;1.50;;
1090;SDS011;534;48.704;9.122;2023-03-11T19:06:53;3.50;;;1.60;;
1090;SDS011;534;48.704;9.122;2023-03-11T19:09:21;3.70;;;1.73;;
1090;SDS011;534;48.704;9.122;2023-03-11T19:11:48;3.43;;;2.00;;
1090;SDS011;534;48.704;9.122;2023-03-11T19:14:14;3.93;;;2.00;;
1090;SDS011;534;48.704;9.122;2023-03-11T19:16:41;2.83;;;1.97;;
1090;SDS011;534;48.704;9.122;2023-03-11T19:19:08;3.50;;;2.20;;
1090;SDS011;534;48.704;9.122;2023-03-11T19:21:35;3.50;;;2.03;;
1090;SDS011;534;48.704;9.122;2023-03-11T19:24:01;3.57;;;2.73;;
1090;SDS011;534;48.704;9.122;2023-03-11T19:26:30;4.70;;;3.30;;
1090;SDS011;534;48.704;9.122;2023-03-11T19:29:00;7.33;;;3.73;;
1090;SDS011;534;48.704;9.122;2023-03-11T19:31:27;5.37;;;4.53;;
1090;SDS011;534;48.704;9.122;2023-03-11T19:33:53;4.63;;;4.23;;
1090;SDS011;534;48.704;9.122;2023-03-11T19:36:20;3.80;;;3.30;;
1090;SDS011;534;48.704;9.122;2023-03-11T19:38:47;7.07;;;5.33;;
1090;SDS011;534;48.704;9.122;2023-03-11T19:41:15;8.07;;;7.27;;
1090;SDS011;534;48.704;9.122;2023-03-11T19:43:44;7.70;;;6.90;;
1090;SDS011;534;48.704;9.122;2023-03-11T19:46:13;6.60;;;5.83;;
1090;SDS011;534;48.704;9.122;2023-03-11T19:48:41;6.23;;;5.50;;
1090;SDS011;534;48.704;9.122;2023-03-11T19:51:07;5.63;;;4.17;;
1090;SDS011;534;48.704;9.122;2023-03-11T19:53:36;7.80;;;4.83;;
1090;SDS011;534;48.704;9.122;2023-03-11T19:56:04;5.60;;;4.77;;
1090;SDS011;534;48.704;9.122;2023-03-11T19:58:32;7.10;;;6.40;;
1090;SDS011;534;48.704;9.122;2023-03-11T20:01:00;5.07;;;4.57;;
1090;SDS011;534;48.704;9.122;2023-03-11T20:03:27;5.43;;;3.90;;
1090;SDS011;534;48.704;9.122;2023-03-11T20:05:55;5.40;;;4.40;;